createdAt,value
2023-02-25T00:00:06.404Z,1.88
2023-02-25T00:05:14.304Z,2.53
2023-02-25T00:10:16.228Z,1.90
2023-02-25T00:15:17.746Z,2.22
2023-02-25T00:20:19.336Z,2.53
2023-02-25T00:25:20.835Z,3.33
2023-02-25T00:30:22.334Z,2.15
2023-02-25T00:35:23.856Z,2.45
2023-02-25T00:40:25.397Z,1.90
2023-02-25T00:45:26.869Z,2.63
2023-02-25T00:50:28.366Z,2.40
2023-02-25T00:55:29.819Z,2.17
2023-02-25T01:00:35.946Z,2.80
2023-02-25T01:05:42.280Z,2.80
2023-02-25T01:10:44.017Z,3.05
2023-02-25T01:15:45.597Z,2.80
2023-02-25T01:20:47.190Z,2.58
2023-02-25T01:25:48.708Z,2.85
2023-02-25T01:30:50.358Z,2.78
2023-02-25T01:35:54.010Z,3.05
2023-02-25T01:40:59.679Z,3.88
2023-02-25T01:46:01.505Z,2.78
2023-02-25T01:51:07.802Z,2.90
2023-02-25T01:56:12.008Z,2.53
2023-02-25T02:01:16.827Z,2.45
2023-02-25T02:06:26.300Z,2.33
2023-02-25T02:11:27.768Z,2.33
2023-02-25T02:16:45.420Z,2.38
2023-02-25T02:22:00.172Z,2.17
2023-02-25T02:27:10.101Z,2.15
2023-02-25T02:32:23.889Z,2.55
2023-02-25T02:38:12.745Z,3.42
2023-02-25T02:43:52.644Z,2.88
2023-02-25T02:49:12.369Z,2.15
2023-02-25T02:54:15.358Z,2.47
2023-02-25T02:59:37.897Z,3.58
2023-02-25T03:04:42.998Z,3.00
2023-02-25T03:09:50.200Z,1.83
2023-02-25T03:14:52.012Z,2.45
2023-02-25T03:20:15.476Z,2.10
2023-02-25T03:25:22.227Z,2.67
2023-02-25T03:31:07.267Z,2.17
2023-02-25T03:36:15.788Z,2.25
2023-02-25T03:41:19.155Z,2.58
2023-02-25T03:46:22.605Z,2.25
2023-02-25T03:51:30.981Z,2.53
2023-02-25T03:56:42.536Z,2.50
2023-02-25T04:01:48.400Z,2.25
2023-02-25T04:06:49.942Z,2.70
2023-02-25T04:11:51.711Z,3.00
2023-02-25T04:16:53.253Z,3.15
2023-02-25T04:21:54.855Z,3.55
2023-02-25T04:26:56.366Z,2.88
2023-02-25T04:31:58.078Z,2.70
2023-02-25T04:36:59.673Z,2.90
2023-02-25T04:42:01.339Z,2.10
2023-02-25T04:47:03.269Z,2.33
2023-02-25T04:52:04.741Z,2.17
2023-02-25T04:57:07.693Z,2.88
2023-02-25T05:02:09.652Z,2.83
2023-02-25T05:07:11.234Z,3.40
2023-02-25T05:12:12.697Z,1.98
2023-02-25T05:17:14.161Z,2.85
2023-02-25T05:22:15.689Z,2.47
2023-02-25T05:27:17.380Z,2.35
2023-02-25T05:32:19.019Z,2.70
2023-02-25T05:37:20.545Z,2.17
2023-02-25T05:42:22.051Z,2.75
2023-02-25T05:47:23.566Z,2.60
2023-02-25T05:52:25.346Z,2.67
2023-02-25T05:57:26.845Z,2.20
2023-02-25T06:02:28.526Z,2.45
2023-02-25T06:07:31.114Z,2.47
2023-02-25T06:12:33.836Z,2.65
2023-02-25T06:17:35.380Z,3.10
2023-02-25T06:22:36.870Z,2.40
2023-02-25T06:27:38.309Z,2.42
2023-02-25T06:32:39.898Z,2.15
2023-02-25T06:37:41.462Z,2.40
2023-02-25T06:42:42.959Z,2.10
2023-02-25T06:47:44.433Z,2.13
2023-02-25T06:52:45.982Z,2.45
2023-02-25T06:57:47.437Z,2.90
2023-02-25T07:02:48.960Z,2.80
2023-02-25T07:07:50.401Z,2.83
2023-02-25T07:12:52.524Z,3.00
2023-02-25T07:17:54.148Z,7.80
2023-02-25T07:22:55.784Z,2.88
2023-02-25T07:27:57.293Z,2.38
2023-02-25T07:32:58.832Z,2.22
2023-02-25T07:38:00.819Z,3.15
2023-02-25T07:43:02.245Z,2.45
2023-02-25T07:48:03.880Z,2.20
2023-02-25T07:53:05.394Z,1.80
2023-02-25T07:58:07.556Z,2.35
2023-02-25T08:03:09.131Z,2.72
2023-02-25T08:08:10.580Z,2.30
2023-02-25T08:13:12.107Z,2.40
2023-02-25T08:18:13.699Z,2.15
2023-02-25T08:23:15.232Z,3.10
2023-02-25T08:28:16.724Z,2.42
2023-02-25T08:33:18.382Z,2.92
2023-02-25T08:38:19.839Z,2.67
2023-02-25T08:43:21.274Z,6.40
2023-02-25T08:48:22.918Z,2.83
2023-02-25T08:53:24.392Z,5.25
2023-02-25T08:58:25.816Z,3.80
2023-02-25T09:03:27.448Z,3.13
2023-02-25T09:08:28.967Z,3.75
2023-02-25T09:13:30.462Z,3.72
2023-02-25T09:18:31.928Z,3.53
2023-02-25T09:23:33.362Z,4.38
2023-02-25T09:28:35.277Z,3.20
2023-02-25T09:33:37.730Z,3.95
2023-02-25T09:38:41.074Z,3.92
2023-02-25T09:43:42.985Z,3.83
2023-02-25T09:49:07.952Z,4.68
2023-02-25T09:54:20.677Z,5.70
2023-02-25T09:59:22.271Z,3.90
2023-02-25T10:04:31.010Z,5.35
2023-02-25T10:09:52.674Z,4.47
2023-02-25T10:15:12.878Z,5.10
2023-02-25T10:20:17.239Z,4.70
2023-02-25T10:25:25.754Z,4.30
2023-02-25T10:30:49.047Z,4.07
2023-02-25T10:36:01.890Z,5.15
2023-02-25T10:41:05.393Z,6.03
2023-02-25T10:46:19.578Z,5.75
2023-02-25T10:51:21.244Z,4.97
2023-02-25T10:56:25.692Z,5.10
2023-02-25T11:01:36.474Z,6.38
2023-02-25T11:06:40.029Z,5.03
2023-02-25T11:11:52.495Z,5.57
2023-02-25T11:17:08.238Z,4.38
2023-02-25T11:22:28.209Z,5.00
2023-02-25T11:27:41.383Z,5.05
2023-02-25T11:32:45.493Z,4.95
2023-02-25T11:37:47.581Z,5.07
2023-02-25T11:43:16.211Z,7.05
2023-02-25T11:48:48.854Z,5.60
2023-02-25T11:54:21.352Z,5.57
2023-02-25T11:59:43.520Z,4.60
2023-02-25T12:04:53.835Z,5.07
2023-02-25T12:10:04.459Z,6.00
2023-02-25T12:15:42.691Z,4.80
2023-02-25T12:21:22.112Z,4.47
2023-02-25T12:27:09.461Z,4.93
2023-02-25T12:32:10.915Z,5.18
2023-02-25T12:37:29.782Z,4.32
2023-02-25T12:42:57.034Z,4.80
2023-02-25T12:48:33.470Z,4.45
2023-02-25T12:53:40.891Z,4.32
2023-02-25T12:58:55.142Z,4.20
2023-02-25T13:04:24.347Z,6.15
2023-02-25T13:09:50.824Z,4.68
2023-02-25T13:15:12.308Z,3.97
2023-02-25T13:20:29.672Z,4.45
2023-02-25T13:25:56.766Z,3.58
2023-02-25T13:31:08.116Z,4.80
2023-02-25T13:36:31.352Z,5.38
2023-02-25T13:42:10.571Z,4.20
2023-02-25T13:47:17.782Z,3.92
2023-02-25T13:52:25.323Z,5.63
2023-02-25T13:57:26.721Z,5.80
2023-02-25T14:02:40.295Z,3.47
2023-02-25T14:07:54.745Z,3.50
2023-02-25T14:13:17.540Z,4.10
2023-02-25T14:18:58.157Z,5.80
2023-02-25T14:24:31.496Z,8.02
2023-02-25T14:29:46.755Z,4.22
2023-02-25T14:35:15.637Z,3.42
2023-02-25T14:40:28.392Z,3.47
2023-02-25T14:45:39.673Z,3.53
2023-02-25T14:50:59.831Z,6.30
2023-02-25T14:56:13.258Z,3.13
2023-02-25T15:01:17.771Z,3.38
2023-02-25T15:06:53.378Z,3.10
2023-02-25T15:12:00.608Z,3.10
2023-02-25T15:17:37.470Z,4.55
2023-02-25T15:22:53.848Z,4.05
2023-02-25T15:27:56.773Z,4.22
2023-02-25T15:33:16.852Z,4.13
2023-02-25T15:38:20.472Z,3.45
2023-02-25T15:43:21.849Z,5.38
2023-02-25T15:48:31.453Z,5.55
2023-02-25T15:53:37.009Z,6.15
2023-02-25T15:58:44.004Z,3.65
2023-02-25T16:03:45.603Z,4.65
2023-02-25T16:08:54.797Z,5.32
2023-02-25T16:13:58.019Z,3.78
2023-02-25T16:19:01.903Z,5.10
2023-02-25T16:24:11.398Z,4.75
2023-02-25T16:29:25.024Z,4.43
2023-02-25T16:34:34.148Z,4.50
2023-02-25T16:39:37.437Z,4.60
2023-02-25T16:44:40.824Z,4.85
2023-02-25T16:49:46.581Z,5.20
2023-02-25T16:54:55.342Z,4.40
2023-02-25T17:00:16.986Z,4.70
2023-02-25T17:05:26.192Z,5.93
2023-02-25T17:10:42.107Z,5.30
2023-02-25T17:15:43.797Z,6.13
2023-02-25T17:20:45.560Z,4.63
2023-02-25T17:25:48.911Z,5.00
2023-02-25T17:30:50.888Z,8.02
2023-02-25T17:35:57.983Z,9.88
2023-02-25T17:40:59.633Z,5.55
2023-02-25T17:46:13.988Z,5.47
2023-02-25T17:51:15.843Z,5.78
2023-02-25T17:56:17.232Z,8.57
2023-02-25T18:01:25.551Z,7.32
2023-02-25T18:06:41.633Z,5.32
2023-02-25T18:11:43.170Z,3.53
2023-02-25T18:16:44.744Z,3.80
2023-02-25T18:21:46.306Z,5.32
2023-02-25T18:27:01.401Z,3.85
2023-02-25T18:32:03.008Z,5.43
2023-02-25T18:37:04.595Z,5.53
2023-02-25T18:42:06.068Z,6.05
2023-02-25T18:47:07.558Z,6.40
2023-02-25T18:52:21.414Z,4.88
2023-02-25T18:57:26.029Z,4.22
2023-02-25T19:02:31.867Z,5.25
2023-02-25T19:07:34.787Z,4.25
2023-02-25T19:12:36.390Z,3.28
2023-02-25T19:17:37.839Z,6.43
2023-02-25T19:22:43.633Z,3.42
2023-02-25T19:27:45.185Z,3.00
2023-02-25T19:32:46.640Z,3.72
2023-02-25T19:37:48.346Z,8.45
2023-02-25T19:42:49.782Z,4.55
2023-02-25T19:47:51.806Z,4.38
2023-02-25T19:52:54.305Z,3.45
2023-02-25T19:57:55.828Z,2.95
2023-02-25T20:02:57.335Z,2.65
2023-02-25T20:07:58.771Z,2.65
2023-02-25T20:13:00.222Z,3.30
2023-02-25T20:18:01.649Z,4.55
2023-02-25T20:23:03.100Z,4.43
2023-02-25T20:28:04.753Z,3.72
2023-02-25T20:33:06.257Z,3.17
2023-02-25T20:38:30.260Z,3.30
2023-02-25T20:43:31.941Z,4.05
2023-02-25T20:48:33.561Z,3.85
2023-02-25T20:53:35.206Z,3.88
2023-02-25T20:58:36.658Z,3.38
2023-02-25T21:03:38.162Z,4.10
2023-02-25T21:08:40.114Z,3.17
2023-02-25T21:13:41.607Z,4.15
2023-02-25T21:18:43.952Z,4.78
2023-02-25T21:23:45.971Z,3.30
2023-02-25T21:28:47.420Z,3.20
2023-02-25T21:33:48.876Z,2.92
2023-02-25T21:38:50.326Z,2.75
2023-02-25T21:43:52.695Z,2.92
2023-02-25T21:48:56.141Z,2.70
2023-02-25T21:53:59.251Z,3.30
2023-02-25T21:59:03.063Z,3.38
2023-02-25T22:04:05.155Z,3.65
2023-02-25T22:09:06.763Z,3.50
2023-02-25T22:14:09.206Z,3.15
2023-02-25T22:19:10.735Z,3.08
2023-02-25T22:24:12.213Z,2.80
2023-02-25T22:29:14.106Z,2.28
2023-02-25T22:34:15.632Z,1.90
2023-02-25T22:39:17.148Z,2.00
2023-02-25T22:44:18.640Z,2.25
2023-02-25T22:49:20.284Z,2.00
2023-02-25T22:54:21.782Z,2.53
2023-02-25T22:59:23.287Z,2.22
2023-02-25T23:04:25.098Z,2.00
2023-02-25T23:09:26.665Z,2.60
2023-02-25T23:14:28.132Z,2.40
2023-02-25T23:19:29.671Z,2.10
2023-02-25T23:24:31.332Z,2.95
2023-02-25T23:29:32.856Z,2.55
2023-02-25T23:34:34.396Z,2.42
2023-02-25T23:39:35.845Z,2.88
2023-02-25T23:44:37.602Z,2.55
2023-02-25T23:49:39.230Z,3.45
2023-02-25T23:54:40.838Z,2.38
2023-02-25T23:59:42.476Z,2.78
